createdAt,value
2022-08-23T00:01:21.784Z,2.63
2022-08-23T00:03:53.681Z,1.77
2022-08-23T00:06:23.392Z,2.50
2022-08-23T00:08:53.113Z,2.40
2022-08-23T00:11:29.856Z,2.50
2022-08-23T00:14:00.106Z,2.57
2022-08-23T00:16:29.731Z,2.47
2022-08-23T00:18:57.945Z,2.40
2022-08-23T00:21:26.137Z,2.80
2022-08-23T00:23:54.135Z,2.10
2022-08-23T00:26:22.533Z,3.33
2022-08-23T00:28:51.076Z,2.73
2022-08-23T00:31:19.919Z,2.60
2022-08-23T00:33:49.240Z,2.50
2022-08-23T00:36:17.158Z,2.23
2022-08-23T00:38:45.064Z,2.60
2022-08-23T00:41:13.056Z,2.43
2022-08-23T00:44:00.575Z,3.10
2022-08-23T00:46:58.340Z,2.67
2022-08-23T00:49:29.075Z,2.60
2022-08-23T00:52:02.545Z,2.40
2022-08-23T00:54:33.184Z,2.63
2022-08-23T00:57:05.560Z,2.50
2022-08-23T00:59:33.742Z,2.70
2022-08-23T01:02:02.624Z,2.27
2022-08-23T01:04:38.482Z,2.30
2022-08-23T01:07:17.346Z,2.20
2022-08-23T01:09:48.327Z,2.27
2022-08-23T01:12:32.820Z,2.43
2022-08-23T01:15:03.805Z,2.50
2022-08-23T01:17:37.088Z,2.80
2022-08-23T01:20:10.583Z,2.57
2022-08-23T01:22:43.167Z,2.37
2022-08-23T01:25:16.827Z,2.70
2022-08-23T01:27:45.807Z,2.67
2022-08-23T01:30:16.986Z,3.07
2022-08-23T01:32:47.533Z,2.50
2022-08-23T01:35:16.827Z,3.13
2022-08-23T01:37:45.729Z,2.63
2022-08-23T01:40:16.158Z,2.57
2022-08-23T01:42:44.489Z,2.87
2022-08-23T01:45:14.641Z,2.53
2022-08-23T01:47:43.665Z,3.00
2022-08-23T01:50:13.110Z,2.27
2022-08-23T01:52:46.971Z,2.57
2022-08-23T01:55:17.575Z,2.60
2022-08-23T01:57:48.382Z,3.10
2022-08-23T02:00:17.662Z,2.70
2022-08-23T02:02:47.081Z,2.17
2022-08-23T02:05:18.928Z,3.10
2022-08-23T02:07:47.442Z,2.30
2022-08-23T02:10:17.020Z,2.90
2022-08-23T02:12:45.303Z,2.80
2022-08-23T02:15:13.682Z,2.97
2022-08-23T02:17:41.828Z,2.80
2022-08-23T02:20:10.665Z,2.70
2022-08-23T02:22:39.577Z,2.93
2022-08-23T02:25:08.774Z,2.60
2022-08-23T02:27:38.369Z,2.30
2022-08-23T02:30:12.895Z,2.67
2022-08-23T02:32:42.199Z,2.83
2022-08-23T02:35:10.807Z,3.30
2022-08-23T02:37:39.097Z,3.40
2022-08-23T02:40:08.430Z,3.40
2022-08-23T02:42:37.885Z,3.00
2022-08-23T02:45:08.414Z,2.50
2022-08-23T02:47:37.318Z,2.90
2022-08-23T02:50:06.523Z,2.67
2022-08-23T02:52:34.698Z,2.73
2022-08-23T02:55:02.686Z,2.67
2022-08-23T02:57:31.450Z,2.97
2022-08-23T03:00:01.056Z,2.43
2022-08-23T03:02:29.490Z,2.60
2022-08-23T03:04:57.512Z,3.00
2022-08-23T03:07:25.679Z,2.70
2022-08-23T03:09:53.625Z,3.10
2022-08-23T03:12:21.601Z,2.87
2022-08-23T03:14:51.247Z,3.03
2022-08-23T03:17:22.048Z,3.30
2022-08-23T03:19:50.323Z,3.10
2022-08-23T03:22:18.466Z,3.33
2022-08-23T03:24:46.666Z,2.80
2022-08-23T03:27:14.755Z,2.77
2022-08-23T03:29:42.844Z,3.20
2022-08-23T03:32:11.457Z,3.10
2022-08-23T03:34:44.822Z,2.83
2022-08-23T03:37:12.776Z,3.20
2022-08-23T03:39:40.873Z,2.80
2022-08-23T03:42:08.993Z,3.33
2022-08-23T03:44:37.065Z,3.00
2022-08-23T03:47:06.268Z,3.23
2022-08-23T03:49:34.288Z,3.17
2022-08-23T03:52:04.490Z,3.00
2022-08-23T03:54:32.523Z,2.77
2022-08-23T03:57:03.008Z,3.67
2022-08-23T03:59:32.943Z,3.13
2022-08-23T04:02:00.959Z,3.10
2022-08-23T04:04:29.091Z,3.93
2022-08-23T04:06:57.305Z,3.37
2022-08-23T04:09:26.596Z,2.80
2022-08-23T04:11:54.600Z,3.50
2022-08-23T04:14:22.719Z,2.47
2022-08-23T04:16:50.620Z,3.10
2022-08-23T04:19:18.677Z,2.73
2022-08-23T04:21:49.497Z,3.30
2022-08-23T04:24:18.980Z,3.53
2022-08-23T04:26:49.520Z,3.73
2022-08-23T04:29:33.618Z,4.30
2022-08-23T04:32:02.820Z,3.93
2022-08-23T04:34:34.794Z,3.63
2022-08-23T04:37:03.047Z,4.10
2022-08-23T04:39:51.885Z,3.90
2022-08-23T04:42:23.329Z,3.93
2022-08-23T04:44:51.342Z,3.43
2022-08-23T04:47:20.415Z,3.87
2022-08-23T04:49:48.456Z,3.50
2022-08-23T04:52:19.387Z,2.87
2022-08-23T04:54:47.804Z,3.30
2022-08-23T04:57:16.476Z,2.97
2022-08-23T04:59:45.769Z,3.23
2022-08-23T05:02:14.484Z,3.00
2022-08-23T05:04:42.483Z,3.00
2022-08-23T05:07:10.951Z,2.83
2022-08-23T05:09:38.877Z,2.70
2022-08-23T05:12:07.142Z,2.80
2022-08-23T05:14:35.107Z,2.87
2022-08-23T05:17:04.773Z,2.87
2022-08-23T05:19:32.709Z,2.27
2022-08-23T05:22:00.650Z,2.00
2022-08-23T05:24:28.646Z,2.77
2022-08-23T05:26:56.658Z,3.17
2022-08-23T05:29:24.683Z,2.63
2022-08-23T05:31:57.111Z,2.50
2022-08-23T05:34:26.580Z,2.33
2022-08-23T05:36:55.875Z,2.30
2022-08-23T05:39:32.822Z,2.27
2022-08-23T05:42:05.447Z,2.40
2022-08-23T05:44:36.441Z,2.00
2022-08-23T05:47:10.534Z,2.60
2022-08-23T05:49:41.181Z,2.50
2022-08-23T05:52:15.001Z,2.83
2022-08-23T05:54:43.052Z,2.50
2022-08-23T05:57:11.563Z,2.20
2022-08-23T05:59:41.762Z,2.00
2022-08-23T06:02:09.975Z,2.37
2022-08-23T06:04:38.185Z,2.17
2022-08-23T06:07:09.781Z,2.80
2022-08-23T06:09:37.964Z,2.20
2022-08-23T06:12:06.223Z,2.77
2022-08-23T06:14:34.194Z,2.67
2022-08-23T06:17:02.410Z,3.50
2022-08-23T06:19:30.363Z,2.73
2022-08-23T06:21:58.291Z,2.33
2022-08-23T06:24:27.664Z,2.30
2022-08-23T06:26:55.637Z,1.93
2022-08-23T06:29:23.738Z,2.40
2022-08-23T06:31:53.292Z,2.03
2022-08-23T06:34:23.769Z,2.40
2022-08-23T06:36:55.195Z,2.30
2022-08-23T06:39:25.495Z,2.47
2022-08-23T06:41:58.442Z,2.33
2022-08-23T06:44:27.322Z,2.60
2022-08-23T06:46:57.436Z,2.70
2022-08-23T06:49:27.660Z,2.97
2022-08-23T06:51:59.913Z,2.53
2022-08-23T06:54:31.367Z,3.00
2022-08-23T06:57:01.392Z,2.73
2022-08-23T06:59:29.915Z,2.70
2022-08-23T07:01:59.597Z,2.20
2022-08-23T07:04:29.895Z,3.00
2022-08-23T07:06:58.859Z,2.33
2022-08-23T07:09:27.360Z,2.90
2022-08-23T07:11:55.874Z,2.53
2022-08-23T07:14:25.871Z,2.63
2022-08-23T07:16:56.221Z,2.70
2022-08-23T07:19:28.903Z,2.40
2022-08-23T07:21:57.956Z,1.80
2022-08-23T07:24:30.635Z,2.27
2022-08-23T07:27:04.052Z,2.00
2022-08-23T07:29:33.487Z,2.60
2022-08-23T07:32:01.513Z,1.90
2022-08-23T07:34:30.025Z,2.50
2022-08-23T07:36:57.964Z,2.07
2022-08-23T07:39:26.445Z,2.03
2022-08-23T07:41:54.721Z,1.90
2022-08-23T07:44:26.421Z,2.20
2022-08-23T07:46:57.027Z,2.57
2022-08-23T07:49:29.378Z,2.27
2022-08-23T07:51:59.306Z,2.60
2022-08-23T07:54:28.421Z,2.20
2022-08-23T07:56:56.400Z,2.00
2022-08-23T07:59:24.436Z,2.27
2022-08-23T08:01:52.484Z,2.00
2022-08-23T08:04:21.842Z,2.17
2022-08-23T08:07:10.478Z,1.90
2022-08-23T08:09:40.422Z,2.00
2022-08-23T08:12:08.947Z,2.20
2022-08-23T08:14:37.358Z,2.10
2022-08-23T08:17:06.935Z,2.23
2022-08-23T08:19:36.195Z,1.87
2022-08-23T08:22:04.362Z,1.87
2022-08-23T08:24:32.325Z,2.13
2022-08-23T08:27:00.567Z,1.60
2022-08-23T08:29:29.417Z,1.90
2022-08-23T08:31:57.539Z,1.57
2022-08-23T08:34:25.698Z,2.13
2022-08-23T08:36:58.488Z,2.13
2022-08-23T08:39:30.313Z,2.13
2022-08-23T08:42:20.603Z,2.07
2022-08-23T08:44:52.320Z,2.20
2022-08-23T08:47:24.061Z,1.60
2022-08-23T08:49:58.848Z,2.20
2022-08-23T08:52:32.163Z,1.43
2022-08-23T08:55:06.665Z,1.77
2022-08-23T08:57:41.105Z,2.07
2022-08-23T09:00:13.365Z,1.50
2022-08-23T09:02:41.948Z,1.70
2022-08-23T09:05:14.608Z,1.90
2022-08-23T09:07:56.230Z,2.33
2022-08-23T09:10:44.361Z,1.80
2022-08-23T09:13:27.903Z,2.00
2022-08-23T09:16:04.048Z,1.77
2022-08-23T09:18:35.313Z,2.17
2022-08-23T09:21:07.788Z,2.03
2022-08-23T09:23:41.364Z,1.80
2022-08-23T09:26:22.089Z,2.03
2022-08-23T09:28:52.176Z,1.87
2022-08-23T09:31:39.129Z,1.90
2022-08-23T09:34:07.847Z,1.83
2022-08-23T09:36:38.346Z,2.00
2022-08-23T09:39:09.930Z,1.83
2022-08-23T09:41:39.933Z,2.23
2022-08-23T09:44:13.330Z,1.40
2022-08-23T09:46:43.594Z,1.80
2022-08-23T09:49:25.977Z,2.10
2022-08-23T09:51:56.857Z,1.67
2022-08-23T09:54:31.091Z,1.77
2022-08-23T09:57:01.921Z,2.10
2022-08-23T09:59:39.156Z,1.53
2022-08-23T10:02:16.601Z,1.90
2022-08-23T10:04:47.903Z,1.87
2022-08-23T10:07:27.155Z,1.83
2022-08-23T10:10:15.974Z,1.70
2022-08-23T10:12:43.925Z,2.23
2022-08-23T10:15:12.244Z,1.83
2022-08-23T10:17:50.949Z,1.87
2022-08-23T10:20:32.490Z,2.00
2022-08-23T10:23:13.633Z,2.40
2022-08-23T10:25:48.291Z,2.20
2022-08-23T10:28:40.366Z,1.63
2022-08-23T10:31:15.464Z,1.87
2022-08-23T10:33:50.039Z,1.43
2022-08-23T10:36:23.950Z,2.20
2022-08-23T10:38:57.796Z,1.90
2022-08-23T10:41:44.456Z,1.97
2022-08-23T10:44:26.575Z,2.10
2022-08-23T10:47:06.117Z,1.97
2022-08-23T10:49:37.015Z,1.53
2022-08-23T10:52:08.779Z,1.87
2022-08-23T10:54:48.850Z,2.07
2022-08-23T10:57:21.734Z,2.07
2022-08-23T10:59:53.609Z,1.80
2022-08-23T11:02:29.783Z,2.43
2022-08-23T11:05:05.725Z,1.90
2022-08-23T11:07:36.902Z,2.00
2022-08-23T11:10:17.286Z,1.60
2022-08-23T11:12:58.352Z,1.97
2022-08-23T11:15:38.358Z,1.50
2022-08-23T11:18:33.564Z,1.97
2022-08-23T11:21:06.493Z,1.90
2022-08-23T11:23:47.801Z,1.60
2022-08-23T11:27:06.378Z,1.77
2022-08-23T11:29:39.392Z,1.87
2022-08-23T11:32:29.924Z,1.50
2022-08-23T11:35:05.676Z,2.30
2022-08-23T11:38:03.833Z,2.20
2022-08-23T11:41:01.016Z,1.70
2022-08-23T11:43:34.447Z,2.20
2022-08-23T11:46:34.597Z,2.23
2022-08-23T11:49:44.073Z,2.07
2022-08-23T11:52:23.065Z,1.87
2022-08-23T11:55:24.675Z,1.63
2022-08-23T11:58:15.542Z,2.20
2022-08-23T12:00:57.554Z,1.90
2022-08-23T12:03:34.026Z,1.93
2022-08-23T12:06:12.688Z,2.30
2022-08-23T12:08:54.769Z,1.70
2022-08-23T12:11:24.508Z,1.80
2022-08-23T12:13:59.827Z,2.17
2022-08-23T12:16:49.582Z,2.20
2022-08-23T12:19:31.432Z,2.03
2022-08-23T12:22:06.359Z,1.90
2022-08-23T12:24:44.474Z,2.03
2022-08-23T12:27:26.615Z,1.90
2022-08-23T12:30:00.334Z,1.90
2022-08-23T12:32:38.747Z,2.17
2022-08-23T12:35:33.604Z,1.70
2022-08-23T12:38:07.576Z,2.37
2022-08-23T12:40:42.069Z,1.90
2022-08-23T12:43:19.826Z,2.10
2022-08-23T12:45:53.320Z,1.90
2022-08-23T12:48:25.075Z,2.10
2022-08-23T12:50:59.945Z,2.07
2022-08-23T12:53:30.742Z,2.57
2022-08-23T12:56:03.258Z,1.80
2022-08-23T12:58:33.885Z,2.00
2022-08-23T13:01:04.904Z,1.90
2022-08-23T13:03:37.144Z,1.80
2022-08-23T13:06:11.833Z,1.90
2022-08-23T13:08:50.993Z,2.07
2022-08-23T13:11:21.822Z,1.63
2022-08-23T13:13:50.234Z,2.33
2022-08-23T13:16:32.444Z,2.40
2022-08-23T13:19:16.600Z,2.10
2022-08-23T13:21:46.365Z,1.60
2022-08-23T13:24:38.721Z,2.20
2022-08-23T13:27:35.354Z,2.07
2022-08-23T13:30:24.334Z,1.90
2022-08-23T13:33:13.932Z,2.03
2022-08-23T13:35:44.692Z,2.07
2022-08-23T13:38:24.580Z,2.30
2022-08-23T13:41:04.463Z,2.20
2022-08-23T13:43:36.894Z,2.10
2022-08-23T13:46:15.593Z,1.30
2022-08-23T13:48:49.119Z,1.97
2022-08-23T13:51:37.034Z,2.00
2022-08-23T13:54:08.887Z,2.17
2022-08-23T13:56:39.073Z,2.23
2022-08-23T13:59:23.272Z,2.00
2022-08-23T14:01:55.209Z,2.00
2022-08-23T14:04:23.326Z,1.63
2022-08-23T14:06:51.356Z,2.50
2022-08-23T14:09:20.799Z,1.83
2022-08-23T14:11:55.474Z,2.10
2022-08-23T14:14:24.388Z,1.53
2022-08-23T14:16:54.345Z,2.07
2022-08-23T14:22:10.580Z,2.30
2022-08-23T14:24:40.706Z,2.20
2022-08-23T14:27:10.063Z,7.57
2022-08-23T14:29:38.335Z,3.03
2022-08-23T14:32:06.650Z,4.07
2022-08-23T14:34:34.627Z,4.87
2022-08-23T14:39:52.311Z,3.13
2022-08-23T14:42:23.085Z,2.20
2022-08-23T14:44:52.259Z,2.20
2022-08-23T14:47:20.248Z,2.00
2022-08-23T14:49:52.006Z,2.00
2022-08-23T14:52:22.245Z,1.87
2022-08-23T14:54:51.553Z,1.90
2022-08-23T14:57:19.610Z,1.70
2022-08-23T14:59:47.869Z,2.07
2022-08-23T15:02:24.253Z,1.57
2022-08-23T15:04:52.832Z,1.80
2022-08-23T15:07:21.047Z,2.07
2022-08-23T15:09:49.705Z,1.90
2022-08-23T15:15:12.514Z,2.60
2022-08-23T15:17:47.856Z,2.20
2022-08-23T15:20:16.483Z,1.60
2022-08-23T15:22:45.201Z,1.97
2022-08-23T15:25:25.835Z,2.27
2022-08-23T15:27:55.723Z,1.90
2022-08-23T15:30:25.179Z,1.77
2022-08-23T15:32:56.597Z,1.90
2022-08-23T15:35:38.209Z,2.13
2022-08-23T15:38:08.991Z,1.63
2022-08-23T15:40:37.058Z,1.93
2022-08-23T15:43:06.627Z,2.07
2022-08-23T15:45:35.042Z,1.67
2022-08-23T15:48:06.818Z,1.43
2022-08-23T15:50:35.971Z,1.73
2022-08-23T15:53:04.157Z,1.97
2022-08-23T15:55:33.817Z,1.57
2022-08-23T15:58:01.765Z,2.07
2022-08-23T16:00:31.948Z,2.20
2022-08-23T16:03:17.184Z,1.70
2022-08-23T16:05:50.936Z,1.80
2022-08-23T16:08:22.173Z,1.80
2022-08-23T16:10:50.360Z,2.00
2022-08-23T16:13:19.042Z,2.13
2022-08-23T16:15:48.367Z,1.87
2022-08-23T16:18:16.327Z,1.97
2022-08-23T16:20:44.898Z,2.20
2022-08-23T16:23:13.386Z,2.00
2022-08-23T16:25:42.145Z,1.63
2022-08-23T16:28:10.367Z,1.80
2022-08-23T16:30:38.377Z,1.73
2022-08-23T16:33:07.735Z,1.40
2022-08-23T16:35:35.758Z,1.80
2022-08-23T16:38:03.775Z,1.60
2022-08-23T16:40:31.757Z,1.77
2022-08-23T16:43:00.421Z,2.27
2022-08-23T16:45:28.580Z,1.83
2022-08-23T16:47:56.547Z,1.80
2022-08-23T16:50:26.077Z,1.87
2022-08-23T16:52:54.047Z,1.67
2022-08-23T16:55:22.457Z,1.83
2022-08-23T16:57:50.448Z,1.93
2022-08-23T17:00:19.002Z,1.70
2022-08-23T17:02:47.161Z,1.57
2022-08-23T17:05:17.276Z,1.60
2022-08-23T17:07:47.810Z,1.60
2022-08-23T17:10:17.800Z,1.47
2022-08-23T17:12:48.713Z,1.20
2022-08-23T17:15:20.197Z,1.50
2022-08-23T17:17:48.576Z,1.60
2022-08-23T17:20:18.261Z,1.90
2022-08-23T17:22:49.387Z,1.83
2022-08-23T17:25:18.356Z,1.80
2022-08-23T17:27:47.401Z,2.00
2022-08-23T17:30:18.365Z,1.67
2022-08-23T17:32:47.710Z,1.40
2022-08-23T17:35:22.828Z,1.53
2022-08-23T17:37:52.891Z,1.80
2022-08-23T17:40:24.373Z,1.80
2022-08-23T17:42:52.772Z,1.80
2022-08-23T17:45:20.842Z,1.20
2022-08-23T17:47:49.322Z,1.23
2022-08-23T17:50:19.286Z,1.70
2022-08-23T17:52:47.270Z,1.30
2022-08-23T17:55:18.473Z,1.80
2022-08-23T17:57:48.307Z,1.67
2022-08-23T18:00:19.152Z,1.67
2022-08-23T18:02:47.446Z,1.60
2022-08-23T18:05:15.809Z,1.47
2022-08-23T18:07:43.843Z,1.67
2022-08-23T18:10:13.185Z,1.50
2022-08-23T18:12:42.901Z,2.10
2022-08-23T18:15:12.394Z,1.63
2022-08-23T18:17:41.419Z,2.23
2022-08-23T18:20:11.547Z,1.63
2022-08-23T18:22:40.209Z,1.77
2022-08-23T18:25:10.177Z,2.00
2022-08-23T18:27:55.522Z,2.10
2022-08-23T18:30:25.077Z,1.83
2022-08-23T18:32:53.104Z,2.43
2022-08-23T18:35:21.277Z,1.90
2022-08-23T18:37:49.280Z,2.53
2022-08-23T18:40:17.265Z,1.63
2022-08-23T18:42:45.421Z,2.07
2022-08-23T18:45:14.666Z,1.83
2022-08-23T18:47:44.231Z,2.10
2022-08-23T18:50:13.683Z,1.90
2022-08-23T18:52:41.971Z,1.70
2022-08-23T18:55:10.715Z,1.60
2022-08-23T18:57:39.258Z,2.43
2022-08-23T19:00:10.624Z,2.13
2022-08-23T19:02:38.566Z,2.20
2022-08-23T19:05:09.076Z,2.30
2022-08-23T19:07:37.013Z,1.70
2022-08-23T19:10:05.388Z,1.57
2022-08-23T19:12:33.296Z,1.40
2022-08-23T19:15:01.300Z,1.63
2022-08-23T19:17:29.319Z,1.73
2022-08-23T19:20:00.053Z,1.70
2022-08-23T19:22:29.735Z,1.80
2022-08-23T19:24:57.679Z,1.30
2022-08-23T19:27:25.815Z,1.50
2022-08-23T19:29:53.825Z,1.40
2022-08-23T19:32:22.207Z,1.53
2022-08-23T19:34:51.403Z,1.57
2022-08-23T19:37:22.933Z,1.80
2022-08-23T19:39:52.992Z,1.60
2022-08-23T19:42:21.501Z,2.30
2022-08-23T19:44:49.614Z,1.50
2022-08-23T19:47:20.330Z,1.80
2022-08-23T19:49:50.355Z,1.63
2022-08-23T19:52:18.293Z,1.63
2022-08-23T19:54:46.222Z,1.73
2022-08-23T19:57:15.525Z,1.60
2022-08-23T19:59:43.979Z,1.50
2022-08-23T20:02:13.936Z,1.07
2022-08-23T20:04:41.946Z,1.60
2022-08-23T20:07:10.089Z,1.70
2022-08-23T20:09:38.179Z,1.37
2022-08-23T20:12:06.457Z,1.63
2022-08-23T20:14:36.357Z,1.77
2022-08-23T20:17:07.301Z,1.70
2022-08-23T20:19:36.183Z,1.37
2022-08-23T20:22:18.846Z,1.63
2022-08-23T20:24:52.137Z,1.80
2022-08-23T20:27:25.447Z,1.50
2022-08-23T20:30:01.271Z,1.40
2022-08-23T20:32:29.779Z,1.57
2022-08-23T20:34:58.408Z,1.87
2022-08-23T20:37:26.377Z,1.37
2022-08-23T20:39:54.417Z,1.47
2022-08-23T20:42:22.395Z,1.60
2022-08-23T20:44:50.426Z,1.43
2022-08-23T20:47:19.895Z,1.30
2022-08-23T20:49:48.311Z,1.50
2022-08-23T20:52:16.693Z,1.90
2022-08-23T20:54:44.908Z,1.93
2022-08-23T20:57:13.085Z,1.90
2022-08-23T20:59:44.667Z,1.70
2022-08-23T21:02:13.124Z,1.53
2022-08-23T21:04:42.481Z,1.37
2022-08-23T21:07:10.578Z,1.70
2022-08-23T21:09:39.321Z,2.03
2022-08-23T21:12:07.692Z,1.37
2022-08-23T21:14:37.108Z,1.43
2022-08-23T21:17:05.053Z,1.50
2022-08-23T21:19:32.990Z,1.17
2022-08-23T21:22:02.238Z,1.50
2022-08-23T21:24:30.352Z,1.60
2022-08-23T21:26:58.386Z,1.40
2022-08-23T21:29:26.333Z,1.30
2022-08-23T21:31:55.003Z,1.60
2022-08-23T21:34:23.274Z,1.63
2022-08-23T21:36:52.320Z,1.70
2022-08-23T21:39:21.625Z,1.60
2022-08-23T21:41:49.668Z,1.67
2022-08-23T21:44:19.284Z,1.63
2022-08-23T21:46:48.775Z,1.67
2022-08-23T21:49:17.882Z,1.40
2022-08-23T21:51:47.099Z,1.63
2022-08-23T21:54:15.695Z,1.70
2022-08-23T21:56:45.797Z,1.97
2022-08-23T21:59:16.603Z,1.57
2022-08-23T22:01:44.980Z,2.00
2022-08-23T22:04:14.856Z,1.40
2022-08-23T22:06:44.878Z,1.60
2022-08-23T22:09:16.234Z,1.50
2022-08-23T22:11:48.044Z,1.77
2022-08-23T22:14:20.121Z,2.03
2022-08-23T22:16:49.382Z,1.60
2022-08-23T22:19:23.530Z,1.47
2022-08-23T22:21:52.374Z,1.30
2022-08-23T22:24:25.444Z,2.10
2022-08-23T22:26:56.242Z,1.70
2022-08-23T22:29:24.638Z,1.60
2022-08-23T22:31:52.719Z,1.40
2022-08-23T22:34:20.898Z,1.70
2022-08-23T22:36:52.297Z,1.53
2022-08-23T22:39:21.034Z,1.90
2022-08-23T22:41:48.994Z,1.37
2022-08-23T22:44:18.594Z,1.47
2022-08-23T22:46:46.972Z,1.30
2022-08-23T22:49:15.106Z,1.60
2022-08-23T22:51:43.771Z,1.60
2022-08-23T22:54:14.307Z,1.77
2022-08-23T22:56:44.527Z,1.67
2022-08-23T22:59:13.958Z,1.63
2022-08-23T23:01:47.693Z,1.73
2022-08-23T23:04:17.693Z,1.70
2022-08-23T23:06:46.068Z,1.50
2022-08-23T23:09:14.706Z,2.00
2022-08-23T23:11:43.908Z,1.70
2022-08-23T23:14:12.779Z,2.10
2022-08-23T23:16:41.764Z,2.20
2022-08-23T23:19:28.817Z,2.13
2022-08-23T23:21:58.709Z,2.23
2022-08-23T23:24:29.202Z,1.53
2022-08-23T23:26:57.624Z,1.87
2022-08-23T23:29:26.764Z,2.30
2022-08-23T23:31:55.265Z,1.70
2022-08-23T23:34:26.073Z,2.40
2022-08-23T23:36:56.212Z,2.27
2022-08-23T23:39:24.254Z,1.73
2022-08-23T23:41:52.209Z,1.90
2022-08-23T23:44:24.374Z,2.50
2022-08-23T23:46:58.929Z,1.70
2022-08-23T23:49:32.636Z,2.13
2022-08-23T23:52:01.729Z,1.90
2022-08-23T23:54:29.729Z,3.10
2022-08-23T23:56:57.688Z,2.37
2022-08-23T23:59:26.680Z,2.00
